Time;durP1;ratioP1;P1;durP2;ratioP2;P2;SDS_P1;SDS_P2;PMS_P1;PMS_P2;Temp;Humidity;BMP_temperature;BMP_pressure;BME280_temperature;BME280_humidity;BME280_pressure;Samples;Min_cycle;Max_cycle;Signal;HPM_P1;HPM_P2
2023/08/05 00:01:00;;;;;;;12.88;7.07;;;14.40;99.90;;;;;;5074694;28;20123;-69
2023/08/05 00:03:25;;;;;;;10.93;7.22;;;14.40;99.90;;;;;;5074591;28;20469;-69
2023/08/05 00:05:51;;;;;;;13.30;7.97;;;14.30;99.90;;;;;;5074338;28;20035;-69
2023/08/05 00:08:17;;;;;;;11.00;7.28;;;14.30;99.90;;;;;;5074508;28;20032;-69
2023/08/05 00:10:43;;;;;;;14.20;8.00;;;14.20;99.90;;;;;;5074443;28;20020;-69
2023/08/05 00:13:09;;;;;;;12.50;8.13;;;14.10;99.90;;;;;;5074074;28;20401;-69
2023/08/05 00:15:34;;;;;;;13.43;8.02;;;14.10;99.90;;;;;;5074407;28;20027;-69
2023/08/05 00:18:00;;;;;;;17.55;9.02;;;14.00;99.90;;;;;;5074239;28;20107;-69
2023/08/05 00:20:25;;;;;;;11.10;7.97;;;14.10;99.90;;;;;;5074368;28;20029;-68
2023/08/05 00:22:51;;;;;;;16.10;8.63;;;14.00;99.90;;;;;;5053820;28;20501;-69
2023/08/05 00:25:18;;;;;;;13.35;8.32;;;14.00;99.90;;;;;;5054146;28;20028;-69
2023/08/05 00:27:43;;;;;;;17.40;9.32;;;14.00;99.90;;;;;;5052961;28;20027;-68
2023/08/05 00:30:09;;;;;;;11.40;8.02;;;13.90;99.90;;;;;;5054478;28;20111;-69
2023/08/05 00:32:36;;;;;;;13.55;8.65;;;13.90;99.90;;;;;;5054118;28;20053;-69
2023/08/05 00:35:03;;;;;;;16.58;9.95;;;13.90;99.90;;;;;;5053928;28;20048;-69
2023/08/05 00:37:29;;;;;;;15.13;10.10;;;13.90;99.90;;;;;;5054041;28;20032;-69
2023/08/05 00:39:54;;;;;;;12.43;8.95;;;13.90;99.90;;;;;;5053990;28;20386;-69
2023/08/05 00:42:20;;;;;;;11.15;8.60;;;13.80;99.90;;;;;;5053638;28;20033;-69
2023/08/05 00:44:45;;;;;;;11.38;8.05;;;13.80;99.90;;;;;;5053710;28;20083;-69
2023/08/05 00:47:11;;;;;;;10.00;7.43;;;13.80;99.90;;;;;;5053667;28;20055;-68
2023/08/05 00:49:37;;;;;;;12.45;7.63;;;13.80;99.90;;;;;;5053692;28;20048;-69
2023/08/05 00:52:06;;;;;;;10.25;8.00;;;13.80;99.90;;;;;;5053314;28;20104;-70
2023/08/05 00:54:32;;;;;;;12.70;8.82;;;13.80;99.90;;;;;;5052360;28;20107;-68
2023/08/05 00:56:58;;;;;;;19.05;9.50;;;13.80;99.90;;;;;;5053725;28;20457;-69
2023/08/05 00:59:24;;;;;;;12.77;9.05;;;13.80;99.90;;;;;;5053407;28;20025;-69
2023/08/05 01:01:49;;;;;;;10.88;8.20;;;13.80;99.90;;;;;;5053614;28;20049;-69
2023/08/05 01:04:15;;;;;;;14.23;8.02;;;13.90;99.90;;;;;;5053308;28;20474;-69
2023/08/05 01:06:41;;;;;;;16.27;10.38;;;13.80;99.90;;;;;;5053368;28;20025;-69
2023/08/05 01:09:07;;;;;;;15.13;9.93;;;13.90;99.90;;;;;;5053130;28;20036;-68
2023/08/05 01:11:33;;;;;;;16.05;10.00;;;13.80;99.90;;;;;;5053512;28;20029;-69
2023/08/05 01:13:58;;;;;;;15.60;9.73;;;13.80;99.90;;;;;;5053503;28;20158;-69
2023/08/05 01:16:24;;;;;;;13.10;8.75;;;13.70;99.90;;;;;;5053127;28;20025;-69
2023/08/05 01:18:51;;;;;;;12.27;7.50;;;13.70;99.90;;;;;;5053404;28;20028;-68
2023/08/05 01:21:22;;;;;;;14.23;9.48;;;13.70;99.90;;;;;;5053192;28;20040;-68
2023/08/05 01:26:38;;;;;;;11.63;8.50;;;13.70;99.90;;;;;;5111222;27;20377;-69
2023/08/05 01:29:04;;;;;;;11.40;8.35;;;13.70;99.90;;;;;;5111157;28;20032;-69
2023/08/05 01:31:31;;;;;;;14.30;9.23;;;13.70;99.90;;;;;;5111325;28;20136;-69
2023/08/05 01:33:57;;;;;;;18.75;10.63;;;13.70;99.90;;;;;;5111131;28;20028;-70
2023/08/05 01:36:22;;;;;;;14.07;9.15;;;13.70;99.90;;;;;;5110909;28;20066;-69
2023/08/05 01:38:48;;;;;;;13.27;9.40;;;13.60;99.90;;;;;;5110872;28;20081;-69
2023/08/05 01:41:15;;;;;;;13.10;7.85;;;13.60;99.90;;;;;;5109709;28;20089;-69
2023/08/05 01:43:40;;;;;;;12.20;8.70;;;13.60;99.90;;;;;;5111081;28;20478;-69
2023/08/05 01:46:06;;;;;;;13.15;9.18;;;13.50;99.90;;;;;;5110919;28;20157;-69
2023/08/05 01:48:31;;;;;;;18.45;11.50;;;13.50;99.90;;;;;;5110818;28;20024;-69
2023/08/05 01:50:57;;;;;;;23.10;16.15;;;13.60;99.90;;;;;;5110842;28;20028;-69
2023/08/05 01:53:22;;;;;;;26.15;16.20;;;13.70;99.90;;;;;;5110618;28;20032;-69
2023/08/05 01:55:48;;;;;;;21.50;13.38;;;13.70;99.90;;;;;;5110594;28;20036;-69
2023/08/05 01:58:13;;;;;;;25.05;15.90;;;13.70;99.90;;;;;;5110532;28;20393;-68
2023/08/05 02:00:39;;;;;;;22.55;13.90;;;13.80;99.90;;;;;;5110752;28;20024;-69
2023/08/05 02:03:04;;;;;;;24.80;14.23;;;13.80;99.90;;;;;;5110542;28;20024;-69
2023/08/05 02:05:30;;;;;;;17.63;13.07;;;13.80;99.90;;;;;;5110405;28;20032;-69
2023/08/05 02:07:55;;;;;;;22.63;14.55;;;13.80;99.90;;;;;;5110574;28;20020;-68
2023/08/05 02:10:21;;;;;;;22.48;14.27;;;13.80;99.90;;;;;;5110552;28;20366;-69
2023/08/05 02:12:47;;;;;;;20.48;13.77;;;13.80;99.90;;;;;;5110228;28;20081;-68
2023/08/05 02:15:13;;;;;;;22.35;16.23;;;13.80;99.90;;;;;;5110475;28;20028;-68
2023/08/05 02:17:38;;;;;;;24.67;16.05;;;13.90;99.90;;;;;;5110136;28;20028;-69
2023/08/05 02:20:05;;;;;;;26.23;15.32;;;13.90;99.90;;;;;;5110195;28;20115;-69
2023/08/05 02:22:30;;;;;;;21.30;14.93;;;13.90;99.90;;;;;;5110333;28;20060;-70
2023/08/05 02:24:56;;;;;;;22.38;15.75;;;14.00;99.90;;;;;;5109907;28;20453;-69
2023/08/05 02:27:21;;;;;;;23.45;17.13;;;14.00;99.90;;;;;;5110006;28;20547;-69
2023/08/05 02:29:47;;;;;;;21.63;15.02;;;14.00;99.90;;;;;;5110243;28;20032;-69
2023/08/05 02:32:12;;;;;;;20.92;14.95;;;13.90;99.90;;;;;;5110145;28;20092;-69
2023/08/05 02:34:38;;;;;;;21.55;15.10;;;14.00;99.90;;;;;;5109915;28;20365;-69
2023/08/05 02:37:04;;;;;;;22.95;15.65;;;14.00;99.90;;;;;;5101585;28;20049;-69
2023/08/05 02:39:29;;;;;;;22.20;16.08;;;13.90;99.90;;;;;;5096318;28;20032;-69
2023/08/05 02:41:55;;;;;;;23.70;16.05;;;14.00;99.90;;;;;;5096334;28;20094;-69
2023/08/05 02:44:20;;;;;;;24.15;15.27;;;14.00;99.90;;;;;;5096276;28;20048;-69
2023/08/05 02:46:46;;;;;;;18.10;14.40;;;14.00;99.90;;;;;;5096093;28;20500;-69
2023/08/05 02:49:11;;;;;;;18.05;14.73;;;14.00;99.90;;;;;;5095077;28;20063;-69
2023/08/05 02:51:37;;;;;;;23.83;15.95;;;13.90;99.90;;;;;;5096165;28;20390;-69
2023/08/05 02:54:04;;;;;;;16.40;12.98;;;13.90;99.90;;;;;;5096179;28;20477;-69
2023/08/05 02:56:30;;;;;;;17.13;12.20;;;13.80;99.90;;;;;;5096160;28;20020;-69
2023/08/05 02:58:55;;;;;;;15.20;10.93;;;13.70;99.90;;;;;;5096057;28;20523;-69
2023/08/05 03:01:21;;;;;;;12.38;9.80;;;13.70;99.90;;;;;;5095942;28;20089;-69
2023/08/05 03:03:46;;;;;;;16.30;10.05;;;13.70;99.90;;;;;;5096023;28;20030;-69
2023/08/05 03:06:12;;;;;;;19.15;12.07;;;13.60;99.90;;;;;;5095876;28;20482;-69
2023/08/05 03:08:38;;;;;;;18.25;12.32;;;13.60;99.90;;;;;;5095686;28;20035;-69
2023/08/05 03:11:04;;;;;;;19.33;12.40;;;13.60;99.90;;;;;;5094538;28;20027;-69
2023/08/05 03:13:30;;;;;;;16.73;11.85;;;13.60;99.90;;;;;;5095792;28;20505;-69
2023/08/05 03:15:55;;;;;;;24.00;13.25;;;13.60;99.90;;;;;;5095499;28;20103;-69
2023/08/05 03:18:21;;;;;;;22.77;14.93;;;13.70;99.90;;;;;;5095658;28;20091;-69
2023/08/05 03:20:47;;;;;;;19.50;12.98;;;13.80;99.90;;;;;;5095256;28;20035;-69
2023/08/05 03:23:13;;;;;;;20.25;14.43;;;13.80;99.90;;;;;;5095338;28;20024;-69
2023/08/05 03:25:39;;;;;;;20.13;13.23;;;13.80;99.90;;;;;;5095135;28;20501;-69
2023/08/05 03:28:05;;;;;;;19.00;13.68;;;13.80;99.90;;;;;;5095315;28;20024;-69
2023/08/05 03:30:31;;;;;;;21.55;13.18;;;13.80;99.90;;;;;;5095396;28;20024;-69
2023/08/05 03:32:56;;;;;;;20.85;13.88;;;13.70;99.90;;;;;;5095446;28;20028;-69
2023/08/05 03:35:22;;;;;;;17.77;12.43;;;13.70;99.90;;;;;;5095355;28;20108;-69
2023/08/05 03:37:47;;;;;;;19.05;12.52;;;13.60;99.90;;;;;;5094986;28;20437;-69
2023/08/05 03:40:13;;;;;;;20.15;13.23;;;13.60;99.90;;;;;;5095105;28;20501;-69
2023/08/05 03:42:40;;;;;;;21.38;14.30;;;13.50;99.90;;;;;;5094954;28;20039;-69
2023/08/05 03:45:06;;;;;;;20.27;13.90;;;13.50;99.90;;;;;;5093975;28;20032;-69
2023/08/05 03:47:33;;;;;;;18.90;11.80;;;13.40;99.90;;;;;;5094765;28;20020;-69
2023/08/05 03:49:58;;;;;;;16.08;10.90;;;13.40;99.90;;;;;;5094493;28;20107;-69
2023/08/05 03:52:26;;;;;;;17.08;11.10;;;13.30;99.90;;;;;;5094923;28;20465;-69
2023/08/05 03:54:52;;;;;;;18.65;12.80;;;13.30;99.90;;;;;;5094991;28;20024;-69
2023/08/05 03:57:17;;;;;;;22.55;14.73;;;13.30;99.90;;;;;;5094787;28;20053;-69
2023/08/05 03:59:43;;;;;;;20.52;13.45;;;13.40;99.90;;;;;;5094867;28;20027;-69
2023/08/05 04:02:09;;;;;;;20.92;13.32;;;13.30;99.90;;;;;;5094557;28;20032;-69
2023/08/05 04:04:35;;;;;;;16.88;12.77;;;13.30;99.90;;;;;;5094757;28;20031;-69
2023/08/05 04:07:01;;;;;;;21.30;12.68;;;13.30;99.90;;;;;;5094808;28;20020;-69
2023/08/05 04:09:26;;;;;;;22.73;14.07;;;13.30;99.90;;;;;;5094785;28;20134;-69
2023/08/05 04:11:53;;;;;;;19.45;12.85;;;13.20;99.90;;;;;;5094458;28;20051;-69
2023/08/05 04:14:20;;;;;;;17.13;11.23;;;13.20;99.90;;;;;;5094644;28;20051;-69
2023/08/05 04:16:47;;;;;;;18.20;11.23;;;13.20;99.90;;;;;;5094630;28;20381;-69
2023/08/05 04:19:15;;;;;;;13.20;10.85;;;13.10;99.90;;;;;;5093206;28;20042;-69
2023/08/05 04:21:46;;;;;;;13.35;9.98;;;13.10;99.90;;;;;;5094522;28;20382;-69
2023/08/05 04:24:12;;;;;;;17.13;12.07;;;13.10;99.90;;;;;;5094234;28;20542;-69
2023/08/05 04:26:38;;;;;;;18.65;12.25;;;13.20;99.90;;;;;;5092808;28;20020;-69
2023/08/05 04:29:04;;;;;;;14.90;11.35;;;13.20;99.90;;;;;;5094264;28;20024;-69
2023/08/05 04:31:29;;;;;;;21.60;13.82;;;13.30;99.90;;;;;;5094492;28;20020;-69
2023/08/05 04:33:55;;;;;;;17.63;12.23;;;13.30;99.90;;;;;;5094424;28;20016;-69
2023/08/05 04:36:20;;;;;;;23.95;13.77;;;13.40;99.90;;;;;;5095055;28;20570;-69
2023/08/05 04:38:46;;;;;;;17.95;13.18;;;13.40;99.90;;;;;;5095191;28;20076;-70
2023/08/05 04:41:11;;;;;;;22.90;13.82;;;13.40;99.90;;;;;;5095139;28;20024;-71
2023/08/05 04:43:37;;;;;;;22.95;13.55;;;13.40;99.90;;;;;;5095192;28;20035;-70
2023/08/05 04:46:02;;;;;;;23.90;13.20;;;13.40;99.90;;;;;;5094788;28;20035;-71
2023/08/05 04:48:28;;;;;;;19.27;12.18;;;13.50;99.90;;;;;;5095527;28;20028;-70
2023/08/05 04:50:55;;;;;;;20.00;12.80;;;13.50;99.90;;;;;;5095473;28;20016;-70
2023/08/05 04:53:21;;;;;;;19.63;13.20;;;13.60;99.90;;;;;;5093022;28;20441;-69
2023/08/05 04:55:46;;;;;;;22.85;13.60;;;13.60;99.90;;;;;;5094104;28;20039;-69
2023/08/05 04:58:12;;;;;;;21.17;13.60;;;13.70;99.90;;;;;;5094054;28;20070;-69
2023/08/05 05:00:38;;;;;;;18.20;12.65;;;13.70;99.90;;;;;;5093477;28;20031;-69
2023/08/05 05:03:06;;;;;;;25.15;14.65;;;13.80;99.90;;;;;;5093987;28;20020;-69
2023/08/05 05:05:33;;;;;;;25.83;14.75;;;13.90;99.90;;;;;;5092674;28;20028;-70
2023/08/05 05:07:59;;;;;;;19.60;14.10;;;14.00;99.90;;;;;;5093741;28;20069;-70
2023/08/05 05:10:25;;;;;;;23.98;15.75;;;14.10;99.90;;;;;;5093857;28;20032;-70
2023/08/05 05:12:51;;;;;;;22.83;14.55;;;14.20;99.90;;;;;;5093520;28;20465;-70
2023/08/05 05:15:18;;;;;;;23.38;16.15;;;14.40;99.90;;;;;;5093433;28;20424;-70
2023/08/05 05:17:44;;;;;;;16.30;12.88;;;14.60;99.90;;;;;;5093720;28;20032;-70
2023/08/05 05:20:10;;;;;;;16.08;13.25;;;14.60;99.90;;;;;;5093230;28;20477;-70
2023/08/05 05:22:36;;;;;;;18.88;12.80;;;14.80;99.90;;;;;;5093488;28;20036;-70
2023/08/05 05:25:01;;;;;;;18.90;12.80;;;14.90;99.90;;;;;;5093041;28;20048;-71
2023/08/05 05:27:27;;;;;;;16.60;12.63;;;15.20;99.90;;;;;;5093254;28;20024;-71
2023/08/05 05:29:52;;;;;;;15.07;11.18;;;15.40;99.90;;;;;;5072816;28;20031;-71
2023/08/05 05:32:18;;;;;;;20.02;13.32;;;15.60;99.90;;;;;;5073075;28;20036;-70
2023/08/05 05:34:43;;;;;;;17.35;13.00;;;15.80;99.90;;;;;;5073086;28;20021;-71
2023/08/05 05:37:09;;;;;;;21.65;13.40;;;15.70;99.90;;;;;;5073076;28;20025;-71
2023/08/05 05:39:34;;;;;;;18.58;12.00;;;15.90;99.90;;;;;;5073068;28;20470;-71
2023/08/05 05:42:00;;;;;;;17.58;11.27;;;15.90;99.90;;;;;;5072970;28;20107;-71
2023/08/05 05:44:27;;;;;;;14.73;10.85;;;16.00;99.90;;;;;;5072905;28;20029;-70
2023/08/05 05:46:53;;;;;;;15.70;10.73;;;16.40;99.90;;;;;;5072927;28;20103;-70
2023/08/05 05:49:19;;;;;;;16.77;9.80;;;17.30;99.90;;;;;;5072921;28;20067;-71
2023/08/05 05:51:47;;;;;;;11.27;8.32;;;18.30;99.90;;;;;;5072884;28;20013;-70
2023/08/05 05:54:13;;;;;;;11.88;7.90;;;;;;;;;;5073092;28;20415;-71
2023/08/05 05:56:39;;;;;;;9.05;7.05;;;21.90;1.00;;;;;;5073115;28;20413;-71
2023/08/05 05:59:05;;;;;;;10.48;6.20;;;;;;;;;;5073036;28;20032;-71
2023/08/05 06:01:31;;;;;;;11.85;7.03;;;;;;;;;;5073168;28;20491;-70
2023/08/05 06:03:57;;;;;;;10.35;6.97;;;;;;;;;;5073342;28;20104;-70
2023/08/05 06:06:23;;;;;;;8.50;6.47;;;;;;;;;;5072895;28;20029;-69
2023/08/05 06:08:49;;;;;;;7.60;6.40;;;;;;;;;;5073276;28;20032;-70
2023/08/05 06:11:15;;;;;;;7.60;6.80;;;;;;;;;;5072978;28;20025;-69
2023/08/05 06:13:42;;;;;;;8.43;6.18;;;;;;;;;;5076727;28;20020;-70
2023/08/05 06:16:08;;;;;;;9.65;6.35;;;;;;;;;;5076515;28;20077;-70
2023/08/05 06:18:33;;;;;;;9.05;6.28;;;;;;;;;;5076630;28;20032;-70
2023/08/05 06:21:00;;;;;;;11.00;6.00;;;;;;;;;;5076427;28;20028;-70
2023/08/05 06:23:25;;;;;;;10.90;7.30;;;;;;;;;;5076269;28;20021;-70
2023/08/05 06:25:51;;;;;;;12.93;10.20;;;;;;;;;;5075936;28;20498;-70
2023/08/05 06:28:17;;;;;;;13.10;9.10;;;;;;;;;;5076237;28;20021;-71
2023/08/05 06:30:45;;;;;;;12.80;9.32;;;;;;;;;;5076172;28;20150;-70
2023/08/05 06:33:11;;;;;;;13.23;10.68;;;;;;;;;;5076315;28;20038;-70
2023/08/05 06:35:37;;;;;;;12.45;10.73;;;;;;;;;;5076317;28;20048;-70
2023/08/05 06:38:03;;;;;;;13.63;10.93;;;;;;;;;;5076119;28;20086;-70
2023/08/05 06:40:29;;;;;;;16.92;10.95;;;;;;;;;;5075959;28;20106;-70
2023/08/05 06:42:56;;;;;;;12.77;10.32;;;;;;;;;;5075754;28;20035;-70
2023/08/05 06:45:22;;;;;;;14.18;10.88;;;;;;;;;;5075790;28;20023;-70
2023/08/05 06:47:48;;;;;;;15.88;11.85;;;;;;;;;;5076086;28;20040;-69
2023/08/05 06:50:14;;;;;;;17.08;11.85;;;;;;;;;;5075834;28;20024;-69
2023/08/05 06:52:40;;;;;;;20.27;12.55;;;;;;;;;;5075764;28;20071;-69
2023/08/05 06:55:07;;;;;;;20.08;13.93;;;;;;;;;;5075898;28;20028;-69
2023/08/05 06:57:33;;;;;;;20.70;15.00;;;;;;;;;;5075758;28;20032;-69
2023/08/05 06:59:59;;;;;;;20.10;15.70;;;;;;;;;;5075779;28;20035;-69
2023/08/05 07:02:25;;;;;;;20.17;15.93;;;;;;;;;;5075458;28;20024;-69
2023/08/05 07:04:53;;;;;;;21.00;15.80;;;;;;;;;;5075465;28;20059;-69
2023/08/05 07:07:19;;;;;;;18.92;15.15;;;;;;;;;;5075536;28;20024;-69
2023/08/05 07:09:45;;;;;;;23.85;16.05;;;;;;;;;;5074346;28;20074;-69
2023/08/05 07:12:11;;;;;;;20.65;14.10;;;;;;;;;;5075436;28;20462;-69
2023/08/05 07:14:38;;;;;;;17.45;14.13;;;;;;;;;;5075435;28;20025;-69
2023/08/05 07:17:04;;;;;;;18.70;14.02;;;;;;;;;;5075361;28;20024;-69
2023/08/05 07:19:30;;;;;;;16.25;12.90;;;;;;;;;;5075506;28;20112;-69
2023/08/05 07:21:56;;;;;;;20.10;13.32;;;;;;;;;;5075262;28;20087;-69
2023/08/05 07:24:22;;;;;;;18.38;11.52;;;;;;;;;;5074800;28;20033;-69
2023/08/05 07:26:48;;;;;;;17.42;11.38;;;;;;;;;;5073959;28;20029;-69
2023/08/05 07:29:14;;;;;;;10.93;8.73;;;;;;;;;;5075133;28;20031;-70
2023/08/05 07:31:40;;;;;;;10.48;9.02;;;;;;;;;;5075223;28;20038;-70
2023/08/05 07:34:08;;;;;;;12.68;9.88;;;;;;;;;;5075048;28;20058;-69
2023/08/05 07:36:34;;;;;;;14.43;10.65;;;;;;;;;;5075143;28;20025;-69
2023/08/05 07:39:03;;;;;;;17.02;10.75;;;;;;;;;;5075106;28;20111;-69
2023/08/05 07:41:30;;;;;;;16.92;10.77;;;;;;;;;;5075061;28;20109;-69
2023/08/05 07:43:58;;;;;;;13.88;9.38;;;;;;;;;;5074990;28;20063;-69
2023/08/05 07:46:26;;;;;;;13.52;8.98;;;;;;;;;;5074877;28;20029;-69
2023/08/05 07:48:55;;;;;;;13.93;9.57;;;;;;;;;;5074914;28;20032;-70
2023/08/05 07:51:22;;;;;;;11.10;8.70;;;;;;;;;;5074819;28;20103;-69
2023/08/05 07:53:49;;;;;;;12.85;9.02;;;;;;;;;;5074832;28;20477;-70
2023/08/05 07:56:15;;;;;;;10.95;7.95;;;;;;;;;;5074799;28;20537;-69
2023/08/05 07:58:44;;;;;;;11.27;9.10;;;;;;;;;;5074697;28;20024;-69
2023/08/05 08:01:12;;;;;;;13.60;8.43;;;;;;;;;;5073344;28;20081;-70
2023/08/05 08:03:38;;;;;;;8.30;6.55;;;;;;;;;;5074745;28;20393;-70
2023/08/05 08:06:04;;;;;;;9.55;6.68;;;;;;;;;;5074124;28;20077;-69
2023/08/05 08:08:31;;;;;;;9.65;6.90;;;;;;;;;;5073320;28;20016;-69
2023/08/05 08:10:56;;;;;;;7.82;6.63;;;;;;;;;;5074530;28;20390;-70
2023/08/05 08:13:22;;;;;;;8.55;6.57;;;;;;;;;;5074459;28;20027;-70
2023/08/05 08:15:48;;;;;;;7.60;6.47;;;;;;;;;;5074173;28;20031;-69
2023/08/05 08:18:14;;;;;;;8.45;7.03;;;;;;;;;;5074343;28;20033;-69
2023/08/05 08:20:40;;;;;;;9.68;7.00;;;;;;;;;;5074053;28;20037;-69
2023/08/05 08:23:06;;;;;;;8.55;6.72;;;;;;;;;;5074076;28;20083;-69
2023/08/05 08:25:32;;;;;;;10.85;7.30;;;;;;;;;;5073805;28;20060;-69
2023/08/05 08:27:58;;;;;;;7.90;7.05;;;;;;;;;;5073900;28;20035;-69
2023/08/05 08:30:24;;;;;;;10.90;8.10;;;;;;;;;;5073847;28;20020;-69
2023/08/05 08:32:50;;;;;;;8.23;7.43;;;;;;;;;;5074117;28;20390;-69
2023/08/05 08:35:16;;;;;;;11.20;7.88;;;;;;;;;;5073356;28;20040;-69
2023/08/05 08:37:42;;;;;;;8.88;7.97;;;;;;;;;;5073676;28;20073;-69
2023/08/05 08:40:08;;;;;;;8.55;7.38;;;;;;;;;;5073762;28;20040;-69
2023/08/05 08:42:34;;;;;;;9.32;7.95;;;;;;;;;;5073985;28;20021;-69
2023/08/05 08:45:01;;;;;;;9.10;7.38;;;;;;;;;;5073537;28;20039;-69
2023/08/05 08:47:28;;;;;;;10.82;7.85;;;;;;;;;;5073769;28;20043;-69
2023/08/05 08:49:54;;;;;;;10.25;7.78;;;;;;;;;;5073489;28;20032;-69
2023/08/05 08:52:20;;;;;;;13.25;10.27;;;;;;;;;;5073713;28;20508;-69
2023/08/05 08:54:46;;;;;;;13.77;10.25;;;;;;;;;;5073535;28;20032;-69
2023/08/05 08:57:13;;;;;;;7.70;6.18;;;;;;;;;;5073719;28;20062;-69
2023/08/05 08:59:40;;;;;;;8.15;5.40;;;;;;;;;;5073499;28;20420;-69
2023/08/05 09:02:15;;;;;;;6.80;5.40;;;;;;;;;;5073367;28;20064;-69
2023/08/05 09:04:42;;;;;;;6.85;5.47;;;;;;;;;;5073302;28;20116;-69
2023/08/05 09:07:09;;;;;;;5.75;4.00;;;;;;;;;;5072411;28;20031;-69
2023/08/05 09:09:35;;;;;;;7.03;5.00;;;;;;;;;;5072263;28;20020;-69
2023/08/05 09:12:02;;;;;;;4.95;3.75;;;;;;;;;;5073188;28;20024;-69
2023/08/05 09:14:28;;;;;;;4.18;3.35;;;;;;;;;;5073245;28;20028;-69
2023/08/05 09:16:57;;;;;;;4.97;3.63;;;;;;;;;;5073210;28;20032;-69
2023/08/05 09:19:25;;;;;;;4.93;3.90;;;;;;;;;;5072303;28;20434;-69
2023/08/05 09:21:51;;;;;;;8.43;6.68;;;;;;;;;;5073179;28;20024;-69
2023/08/05 09:24:22;;;;;;;9.65;5.70;;;;;;;;;;5072988;28;20035;-69
2023/08/05 09:26:54;;;;;;;6.50;3.72;;;;;;;;;;5073080;28;20474;-69
2023/08/05 09:29:21;;;;;;;15.20;3.35;;;;;;;;;;5073004;28;20060;-69
2023/08/05 09:32:03;;;;;;;4.63;3.00;;;;;;;;;;5073016;28;20078;-69
2023/08/05 09:34:33;;;;;;;3.78;2.50;;;;;;;;;;5073252;28;20032;-69
2023/08/05 09:36:59;;;;;;;6.75;2.70;;;;;;;;;;5073034;28;20025;-69
2023/08/05 09:39:30;;;;;;;4.20;3.10;;;;;;;;;;5073223;28;20017;-68
2023/08/05 09:41:56;;;;;;;4.20;3.35;;;;;;;;;;5073194;28;20067;-69
2023/08/05 09:44:22;;;;;;;5.72;3.00;;;;;;;;;;5073136;28;20473;-68
2023/08/05 09:46:49;;;;;;;6.35;2.38;;;;;;;;;;5074224;28;20028;-68
2023/08/05 09:49:17;;;;;;;4.03;2.55;;;22.70;99.90;;;;;;5077167;28;20497;-68
2023/08/05 09:51:43;;;;;;;6.75;3.03;;;22.40;99.90;;;;;;5077117;28;20166;-68
2023/08/05 09:54:14;;;;;;;3.70;2.75;;;22.40;1.00;;;;;;5075900;28;20024;-69
2023/08/05 09:56:40;;;;;;;5.35;2.78;;;22.40;99.90;;;;;;5075526;28;20040;-68
2023/08/05 09:59:07;;;;;;;3.95;2.80;;;22.40;99.90;;;;;;5077039;28;20485;-68
2023/08/05 10:01:35;;;;;;;4.72;2.90;;;22.50;99.90;;;;;;5075393;28;20442;-69
2023/08/05 10:04:01;;;;;;;3.55;2.92;;;22.60;89.60;;;;;;5076386;28;20025;-68
2023/08/05 10:06:28;;;;;;;5.65;3.60;;;22.20;5.20;;;;;;5076753;28;20046;-68
2023/08/05 10:08:55;;;;;;;4.60;3.33;;;21.90;1.00;;;;;;5076541;28;20028;-68
2023/08/05 10:11:22;;;;;;;4.85;3.25;;;21.30;99.90;;;;;;5076786;28;20470;-68
2023/08/05 10:13:52;;;;;;;3.50;2.97;;;21.20;99.90;;;;;;5076679;28;20082;-68
2023/08/05 10:16:19;;;;;;;3.58;3.28;;;21.40;1.00;;;;;;5076295;28;20032;-68
2023/08/05 10:18:45;;;;;;;5.25;2.83;;;21.40;99.90;;;;;;5076552;28;20124;-69
2023/08/05 10:21:10;;;;;;;5.50;3.40;;;21.40;99.90;;;;;;5076570;28;20059;-68
2023/08/05 10:23:36;;;;;;;4.07;2.92;;;21.50;1.00;;;;;;5076431;28;20062;-68
2023/08/05 10:26:04;;;;;;;6.53;2.90;;;21.60;1.00;;;;;;5074808;28;20040;-68
2023/08/05 10:31:24;;;;;;;3.10;2.67;;;21.50;99.90;;;;;;5070645;28;20780;-68
2023/08/05 10:34:10;;;;;;;4.22;2.40;;;21.60;99.90;;;;;;5069525;28;20390;-68
2023/08/05 10:36:45;;;;;;;3.17;2.55;;;21.60;99.90;;;;;;5070328;28;20055;-69
2023/08/05 10:39:41;;;;;;;3.63;2.88;;;21.30;99.90;;;;;;5069324;28;20033;-69
2023/08/05 10:45:07;;;;;;;5.28;2.88;;;20.10;99.90;;;;;;5111247;27;20105;-69
2023/08/05 10:47:33;;;;;;;6.15;3.00;;;20.60;1.00;;;;;;5110096;28;20552;-69
2023/08/05 10:50:00;;;;;;;3.95;2.55;;;20.50;99.90;;;;;;5110938;28;20055;-70
2023/08/05 10:52:26;;;;;;;5.60;2.80;;;20.60;99.90;;;;;;5111252;28;20023;-69
2023/08/05 10:54:53;;;;;;;6.75;2.50;;;20.60;1.00;;;;;;5110019;28;20498;-69
2023/08/05 11:00:20;;;;;;;3.70;2.28;;;20.40;92.20;;;;;;5111180;27;20438;-69
2023/08/05 11:02:47;;;;;;;5.30;2.67;;;20.60;1.00;;;;;;5109975;28;20028;-69
2023/08/05 11:05:12;;;;;;;3.25;2.88;;;20.80;1.00;;;;;;5111297;28;20027;-69
2023/08/05 11:07:39;;;;;;;2.45;2.25;;;20.50;1.00;;;;;;5111007;28;20024;-69
2023/08/05 11:10:05;;;;;;;3.95;2.35;;;20.60;1.00;;;;;;5109903;28;20421;-69
2023/08/05 11:12:31;;;;;;;6.70;2.85;;;20.60;29.10;;;;;;5109925;28;20477;-69
2023/08/05 11:14:57;;;;;;;3.85;3.40;;;20.50;99.90;;;;;;5110866;28;20089;-69
2023/08/05 11:17:23;;;;;;;4.90;2.67;;;20.60;1.00;;;;;;5110804;28;20027;-69
2023/08/05 11:19:58;;;;;;;4.63;2.47;;;20.90;1.00;;;;;;5110610;28;20134;-69
2023/08/05 11:22:32;;;;;;;3.47;2.53;;;21.20;1.00;;;;;;5109861;28;20020;-69
2023/08/05 11:25:00;;;;;;;4.68;4.10;;;21.00;1.00;;;;;;5110655;28;20393;-69
2023/08/05 11:27:46;;;;;;;6.65;3.60;;;20.90;1.00;;;;;;5109506;28;20043;-69
2023/08/05 11:30:13;;;;;;;3.95;3.40;;;20.70;1.00;;;;;;5110766;28;20029;-69
2023/08/05 11:32:56;;;;;;;3.90;3.15;;;20.60;1.00;;;;;;5110690;28;20077;-69
2023/08/05 11:35:24;;;;;;;5.43;3.00;;;20.60;99.90;;;;;;5090375;28;20048;-69
2023/08/05 11:37:49;;;;;;;3.90;3.40;;;20.50;99.90;;;;;;5090008;28;20025;-69
2023/08/05 11:40:15;;;;;;;4.10;3.67;;;20.30;99.90;;;;;;5090283;28;20355;-68
2023/08/05 11:42:41;;;;;;;5.32;3.53;;;20.20;1.00;;;;;;5090302;28;20056;-68
2023/08/05 11:45:12;;;;;;;3.20;2.90;;;20.20;99.90;;;;;;5089948;28;20032;-70
2023/08/05 11:47:39;;;;;;;4.82;3.55;;;20.30;99.90;;;;;;5089976;28;20107;-68
2023/08/05 11:50:06;;;;;;;3.80;3.50;;;20.30;1.00;;;;;;5089092;28;20390;-68
2023/08/05 11:52:31;;;;;;;4.18;3.70;;;20.40;99.90;;;;;;5088875;28;20036;-69
2023/08/05 11:54:58;;;;;;;4.25;3.70;;;20.40;99.90;;;;;;5089678;28;20048;-69
2023/08/05 11:57:24;;;;;;;7.72;4.10;;;20.60;99.90;;;;;;5089999;28;20431;-69
2023/08/05 11:59:53;;;;;;;3.95;3.40;;;20.90;1.00;;;;;;5088265;28;20450;-69
2023/08/05 12:02:19;;;;;;;5.65;4.13;;;21.30;20.90;;;;;;5089772;28;20052;-70
2023/08/05 12:04:48;;;;;;;7.88;4.82;;;21.60;99.90;;;;;;5089740;28;20489;-69
2023/08/05 12:07:17;;;;;;;6.75;4.82;;;21.70;99.90;;;;;;5089759;28;20407;-69
2023/08/05 12:09:42;;;;;;;5.03;4.53;;;22.00;99.90;;;;;;5085823;28;20029;-69
2023/08/05 12:12:16;;;;;;;5.70;4.45;;;22.20;99.90;;;;;;5075802;28;20516;-69
2023/08/05 12:14:42;;;;;;;10.25;9.35;;;22.30;99.90;;;;;;5076157;28;20035;-69
2023/08/05 12:17:07;;;;;;;7.10;6.40;;;22.60;99.90;;;;;;5076211;28;20389;-69
2023/08/05 12:19:33;;;;;;;5.90;4.90;;;23.00;1.00;;;;;;5075745;28;20032;-69
2023/08/05 12:21:59;;;;;;;5.45;4.82;;;23.00;99.90;;;;;;5075816;28;20579;-69
2023/08/05 12:24:24;;;;;;;5.38;4.88;;;22.60;99.90;;;;;;5075927;28;20024;-69
2023/08/05 12:26:50;;;;;;;5.38;4.88;;;22.50;99.90;;;;;;5075718;28;20056;-68
2023/08/05 12:29:15;;;;;;;5.90;4.65;;;22.30;99.90;;;;;;5075534;28;20090;-69
2023/08/05 12:31:41;;;;;;;6.50;5.22;;;22.50;99.90;;;;;;5075631;28;20029;-69
2023/08/05 12:34:06;;;;;;;5.32;4.43;;;22.80;99.90;;;;;;5075712;28;20036;-69
2023/08/05 12:36:32;;;;;;;5.43;4.93;;;23.00;99.90;;;;;;5075412;28;20393;-69
2023/08/05 12:38:58;;;;;;;5.50;4.57;;;23.20;1.00;;;;;;5075358;28;20033;-69
2023/08/05 12:41:23;;;;;;;5.50;4.55;;;23.40;1.00;;;;;;5075676;28;20378;-68
2023/08/05 12:43:49;;;;;;;4.82;4.43;;;23.30;99.90;;;;;;5074308;28;20409;-68
2023/08/05 12:46:15;;;;;;;6.38;4.68;;;22.90;99.90;;;;;;5075561;28;20028;-69
2023/08/05 12:48:40;;;;;;;6.25;4.95;;;22.60;12.20;;;;;;5075284;28;20035;-68
2023/08/05 12:51:06;;;;;;;5.15;4.70;;;22.70;93.60;;;;;;5075535;28;20024;-68
2023/08/05 12:53:31;;;;;;;5.45;4.95;;;22.90;80.40;;;;;;5075377;28;20052;-69
2023/08/05 12:55:57;;;;;;;4.65;4.25;;;22.60;1.00;;;;;;5074964;28;20054;-68
2023/08/05 12:58:22;;;;;;;5.72;4.13;;;22.60;99.90;;;;;;5074861;28;20049;-68
2023/08/05 13:00:48;;;;;;;4.88;4.40;;;22.90;99.90;;;;;;5075289;28;20529;-68
2023/08/05 13:03:13;;;;;;;4.65;4.25;;;22.70;99.90;;;;;;5075202;28;20086;-68
2023/08/05 13:05:39;;;;;;;4.97;4.43;;;22.60;99.90;;;;;;5074924;28;20031;-68
2023/08/05 13:08:04;;;;;;;7.53;6.90;;;22.70;99.90;;;;;;5075142;28;20048;-69
2023/08/05 13:10:31;;;;;;;7.00;3.75;;;22.70;99.90;;;;;;5073572;28;20028;-68
2023/08/05 13:12:56;;;;;;;7.75;7.03;;;23.10;99.90;;;;;;5075032;28;20036;-69
2023/08/05 13:15:22;;;;;;;4.18;3.75;;;23.60;96.20;;;;;;5074641;28;20016;-68